Time;durP1;ratioP1;P1;durP2;ratioP2;P2;SDS_P1;SDS_P2;PMS_P1;PMS_P2;Temp;Humidity;BMP_temperature;BMP_pressure;BME280_temperature;BME280_humidity;BME280_pressure;Samples;Min_cycle;Max_cycle;Signal;HPM_P1;HPM_P2
2022/06/18 00:00:01;;;;;;;4.30;1.40;;;;;;;20.44;87.77;97037.91;5026468;28;20035;-72
2022/06/18 00:02:37;;;;;;;3.35;1.20;;;;;;;20.39;87.18;97038.78;5046895;28;20178;-72
2022/06/18 00:05:02;;;;;;;8.55;1.52;;;;;;;20.40;85.89;97036.88;5045963;28;20052;-72
2022/06/18 00:07:28;;;;;;;5.28;1.33;;;;;;;20.42;84.78;97034.66;5047053;28;20040;-72
2022/06/18 00:09:58;;;;;;;4.93;1.20;;;;;;;20.44;83.60;97032.47;5044982;28;20499;-72
2022/06/18 00:15:24;;;;;;;2.85;1.20;;;;;;;20.52;83.64;97029.06;5045299;28;20051;-73
2022/06/18 00:17:51;;;;;;;4.85;1.40;;;;;;;20.52;83.81;97027.16;5045714;28;20056;-72
2022/06/18 00:20:18;;;;;;;4.65;1.15;;;;;;;20.53;82.40;97030.69;5045293;28;20028;-71
2022/06/18 00:22:49;;;;;;;7.25;1.63;;;;;;;20.51;84.11;97027.47;5047022;28;20442;-72
2022/06/18 00:25:16;;;;;;;2.80;1.10;;;;;;;20.50;84.22;97034.81;5048843;28;20052;-71
2022/06/18 00:27:42;;;;;;;3.17;1.27;;;;;;;20.48;84.03;97030.78;5052088;28;20043;-72
2022/06/18 00:30:11;;;;;;;3.33;1.20;;;;;;;20.48;83.91;97033.50;5048324;28;20075;-72
2022/06/18 00:32:37;;;;;;;4.40;1.30;;;;;;;20.47;83.99;97026.47;5051616;28;20252;-73
2022/06/18 00:35:03;;;;;;;2.30;1.13;;;;;;;20.42;84.53;97030.03;5049736;28;20432;-72
2022/06/18 00:37:28;;;;;;;3.05;1.10;;;;;;;20.36;84.79;97019.53;5049662;28;20285;-71
2022/06/18 00:39:54;;;;;;;5.97;1.20;;;;;;;20.30;86.29;97022.31;5050440;28;20032;-72
2022/06/18 00:42:27;;;;;;;2.40;1.00;;;;;;;20.22;89.69;97025.72;5051388;28;20094;-71
2022/06/18 00:44:55;;;;;;;6.85;1.35;;;;;;;20.18;87.56;97016.56;5049221;28;20051;-72
2022/06/18 00:47:43;;;;;;;3.00;1.15;;;;;;;20.09;91.03;97023.78;5049050;28;20039;-72
2022/06/18 00:50:21;;;;;;;3.40;1.10;;;;;;;20.03;93.12;97024.97;5034657;28;20468;-72
2022/06/18 00:52:55;;;;;;;2.63;1.20;;;;;;;19.93;89.85;97019.69;5051282;28;20230;-71
2022/06/18 00:55:40;;;;;;;3.58;1.40;;;;;;;19.88;92.25;97011.59;5048497;28;20036;-71
2022/06/18 00:58:15;;;;;;;3.75;1.20;;;;;;;19.85;90.82;97017.63;5048232;28;20145;-71
2022/06/18 01:00:49;;;;;;;5.03;1.35;;;;;;;19.80;90.09;97018.50;5045419;28;20080;-71
2022/06/18 01:03:27;;;;;;;2.30;1.17;;;;;;;19.82;89.90;97020.94;5029754;28;20076;-71
2022/06/18 01:05:59;;;;;;;3.13;1.25;;;;;;;19.79;89.16;97019.63;5043624;28;20051;-72
2022/06/18 01:08:28;;;;;;;7.05;1.52;;;;;;;19.74;89.72;97023.19;5033285;28;20444;-72
2022/06/18 01:11:04;;;;;;;2.33;1.20;;;;;;;19.78;88.56;97018.00;5061902;28;20142;-71
2022/06/18 01:13:34;;;;;;;9.20;1.40;;;;;;;19.79;89.23;97019.63;5027923;28;20277;-72
2022/06/18 01:16:00;;;;;;;3.88;1.15;;;;;;;19.80;88.30;97009.56;5026797;28;20042;-71
2022/06/18 01:18:28;;;;;;;3.70;1.20;;;;;;;19.86;87.46;97008.38;5033119;28;20399;-73
2022/06/18 01:21:01;;;;;;;2.72;1.48;;;;;;;19.85;88.39;97006.78;5027633;28;20241;-71
2022/06/18 01:23:39;;;;;;;3.40;1.10;;;;;;;19.82;88.58;97002.72;5027382;28;20167;-71
2022/06/18 01:26:06;;;;;;;4.07;1.08;;;;;;;19.80;88.62;97004.94;5058705;28;20049;-73
2022/06/18 01:28:34;;;;;;;2.67;1.23;;;;;;;19.85;87.48;96995.91;5028482;28;20037;-72
2022/06/18 01:31:00;;;;;;;2.83;1.25;;;;;;;19.83;88.29;96995.38;5046567;28;20057;-72
2022/06/18 01:33:26;;;;;;;3.15;1.40;;;;;;;19.83;88.28;96993.47;5033630;28;20041;-71
2022/06/18 01:35:54;;;;;;;7.57;1.30;;;;;;;19.80;88.73;96993.28;5049788;28;20649;-72
2022/06/18 01:38:24;;;;;;;;;;;;;;;19.85;88.66;96995.91;5065122;28;20036;-71
2022/06/18 01:43:57;;;;;;;3.33;1.20;;;;;;;19.72;88.42;96986.59;5064991;28;20044;-72
2022/06/18 01:46:26;;;;;;;8.90;1.35;;;;;;;19.68;88.80;96986.34;5034028;28;22213;-72
2022/06/18 01:48:54;;;;;;;3.13;1.10;;;;;;;19.64;88.73;96982.63;5048054;28;20484;-72
2022/06/18 01:51:29;;;;;;;4.47;1.20;;;;;;;19.61;89.01;96977.81;5038467;28;20163;-71
2022/06/18 01:54:20;;;;;;;4.05;1.42;;;;;;;19.56;90.57;96988.69;5055606;28;20032;-73
2022/06/18 01:56:52;;;;;;;3.20;1.35;;;;;;;19.52;89.83;96982.22;5061243;28;20040;-71
2022/06/18 01:59:31;;;;;;;5.28;1.55;;;;;;;19.52;91.21;96982.22;5033573;28;20041;-73
2022/06/18 02:02:00;;;;;;;4.88;1.38;;;;;;;19.45;91.34;96981.78;5062930;28;20053;-72
2022/06/18 02:04:27;;;;;;;6.15;1.20;;;;;;;19.40;90.51;96982.66;5046219;28;20029;-71
2022/06/18 02:06:53;;;;;;;2.60;1.10;;;;;;;19.26;96.18;96975.53;5037785;28;20508;-73
2022/06/18 02:09:50;;;;;;;5.97;1.30;;;;;;;19.26;92.99;96978.25;5030989;28;20040;-71
2022/06/18 02:12:23;;;;;;;2.75;1.17;;;;;;;19.17;93.30;96975.38;5031103;28;20460;-72
2022/06/18 02:14:54;;;;;;;3.45;1.30;;;;;;;19.13;93.61;96974.34;5060926;28;20496;-72
2022/06/18 02:17:23;;;;;;;7.28;1.30;;;;;;;19.10;93.14;96972.22;5047498;28;20052;-72
2022/06/18 02:19:52;;;;;;;5.53;1.30;;;;;;;19.06;93.24;96968.44;5033047;28;20159;-71
2022/06/18 02:22:20;;;;;;;3.22;1.33;;;;;;;19.05;93.34;96967.66;5048601;28;20029;-72
2022/06/18 02:24:46;;;;;;;2.60;1.20;;;;;;;19.00;93.23;96975.88;5036688;28;20069;-72
2022/06/18 02:27:14;;;;;;;4.40;1.30;;;;;;;18.86;97.81;96967.63;5048106;28;20187;-72
2022/06/18 02:29:43;;;;;;;8.65;1.65;;;;;;;18.83;96.63;96965.50;5030713;28;20129;-72
2022/06/18 02:32:19;;;;;;;5.38;1.20;;;;;;;18.84;94.65;96961.69;5063990;28;20521;-71
2022/06/18 02:34:44;;;;;;;9.30;1.83;;;;;;;18.80;95.08;96959.81;5030097;28;20127;-73
2022/06/18 02:37:20;;;;;;;4.18;1.20;;;;;;;18.80;95.80;96960.63;5047647;28;20055;-72
2022/06/18 02:39:59;;;;;;;3.42;1.13;;;;;;;18.75;96.32;96957.97;5060407;28;20040;-73
2022/06/18 02:42:28;;;;;;;4.07;1.50;;;;;;;18.75;95.23;96957.16;5030686;28;20145;-72
2022/06/18 02:44:54;;;;;;;5.05;1.55;;;;;;;18.62;95.84;96969.47;5045348;28;20076;-73
2022/06/18 02:47:21;;;;;;;4.53;1.23;;;;;;;18.63;96.38;96954.84;5028557;28;20163;-72
2022/06/18 02:49:54;;;;;;;2.90;1.23;;;;;;;18.58;96.40;96952.97;5048623;28;20040;-72
2022/06/18 02:52:23;;;;;;;2.95;1.23;;;;;;;18.59;96.95;96964.63;5047475;28;20283;-73
2022/06/18 02:54:48;;;;;;;4.32;1.25;;;;;;;18.59;97.89;96957.28;5054248;28;20552;-72
2022/06/18 02:57:27;;;;;;;5.80;1.40;;;;;;;18.61;97.22;96954.31;5046478;28;20033;-72
2022/06/18 02:59:53;;;;;;;5.80;1.17;;;;;;;18.59;96.20;96949.16;5028847;28;20559;-72
2022/06/18 03:02:18;;;;;;;3.20;1.30;;;;;;;18.57;97.09;96948.66;5028844;28;20437;-72
2022/06/18 03:04:46;;;;;;;6.82;1.33;;;;;;;18.58;96.11;96952.16;5046575;28;20506;-71
2022/06/18 03:07:11;;;;;;;4.50;1.30;;;;;;;18.56;97.02;96962.50;5048131;28;20174;-72
2022/06/18 03:12:06;;;;;;;5.32;1.42;;;;;;;18.52;96.81;96954.16;5044010;28;20055;-72
2022/06/18 03:12:22;;;;;;;6.28;1.20;;;;;;;18.52;96.58;96954.16;5061424;28;20164;-72
2022/06/18 03:14:48;;;;;;;3.53;1.33;;;;;;;18.51;97.86;96960.63;5029932;28;20505;-72
2022/06/18 03:17:14;;;;;;;4.20;1.52;;;;;;;18.51;97.84;96960.63;5033436;28;20580;-72
2022/06/18 03:19:50;;;;;;;3.65;1.40;;;;;;;18.51;98.04;96957.94;5062790;28;20039;-73
2022/06/18 03:22:19;;;;;;;3.25;1.30;;;;;;;18.51;98.14;96952.50;5049454;28;20052;-72
2022/06/18 03:24:45;;;;;;;5.78;1.30;;;;;;;18.52;99.57;96962.28;5046000;28;20348;-72
2022/06/18 03:27:13;;;;;;;2.85;1.40;;;;;;;18.59;97.17;96957.28;5062291;28;20120;-72
2022/06/18 03:29:42;;;;;;;4.07;1.25;;;;;;;18.63;98.12;96954.84;5023094;28;20076;-72
2022/06/18 03:32:09;;;;;;;4.72;1.42;;;;;;;18.70;97.42;96957.25;5032723;28;20057;-72
2022/06/18 03:34:34;;;;;;;3.53;1.40;;;;;;;18.77;96.58;96960.41;5058417;28;20052;-72
2022/06/18 03:37:00;;;;;;;5.53;1.42;;;;;;;18.87;94.75;96950.25;5027371;28;20511;-72
2022/06/18 03:39:26;;;;;;;4.13;1.50;;;;;;;18.92;95.55;96952.09;5042118;28;20036;-72
2022/06/18 03:41:51;;;;;;;5.68;1.40;;;;;;;18.94;96.52;96949.91;5056909;28;20040;-72
2022/06/18 03:44:17;;;;;;;5.43;1.40;;;;;;;18.95;96.81;96953.41;5030452;28;20055;-73
2022/06/18 03:46:45;;;;;;;5.00;1.20;;;;;;;18.95;96.55;96951.50;5027191;28;20033;-72
2022/06/18 03:49:25;;;;;;;2.83;1.27;;;;;;;19.01;96.04;96961.19;5057702;28;20065;-71
2022/06/18 03:51:51;;;;;;;4.63;1.45;;;;;;;19.05;95.53;96954.09;5034891;28;20055;-72
2022/06/18 03:54:17;;;;;;;3.75;1.35;;;;;;;19.07;96.47;96959.25;5023707;28;20039;-72
2022/06/18 03:56:45;;;;;;;5.45;1.50;;;;;;;19.08;97.81;96958.16;5029109;28;20041;-72
2022/06/18 03:59:12;;;;;;;2.53;1.10;;;;;;;19.08;96.71;96956.25;5028912;28;20044;-72
2022/06/18 04:01:40;;;;;;;7.72;1.58;;;;;;;19.11;97.44;96960.25;5031136;28;20037;-72
2022/06/18 04:04:08;;;;;;;3.30;1.33;;;;;;;19.12;96.54;96954.53;5032793;28;20048;-72
2022/06/18 04:06:41;;;;;;;3.00;1.33;;;;;;;19.15;98.10;96955.88;5029845;28;20369;-71
2022/06/18 04:09:33;;;;;;;3.55;1.30;;;;;;;19.18;97.08;96953.38;5025957;28;20045;-72
2022/06/18 04:11:59;;;;;;;7.55;1.60;;;;;;;19.17;98.34;96954.47;5046842;28;20060;-71
2022/06/18 04:14:25;;;;;;;5.50;1.35;;;;;;;19.21;97.72;96955.50;5029576;28;20459;-71
2022/06/18 04:17:16;;;;;;;3.38;1.20;;;;;;;19.19;96.95;96949.56;5027968;28;20196;-71
2022/06/18 04:19:43;;;;;;;3.40;1.38;;;;;;;19.26;96.88;96962.78;5060750;28;20040;-73
2022/06/18 04:22:09;;;;;;;3.70;1.40;;;;;;;19.34;96.82;96959.41;5038418;28;20052;-72
2022/06/18 04:24:43;;;;;;;2.88;1.30;;;;;;;19.34;100.00;96959.41;5033056;28;20053;-72
2022/06/18 04:27:09;;;;;;;2.92;1.35;;;;;;;19.33;100.00;96960.50;5030867;28;20045;-71
2022/06/18 04:29:35;;;;;;;5.15;1.50;;;;;;;19.39;98.38;96962.06;5028796;28;20053;-71
2022/06/18 04:32:02;;;;;;;3.38;1.77;;;;;;;19.44;100.00;96964.69;5044256;28;20504;-73
2022/06/18 04:34:32;;;;;;;4.55;1.40;;;;;;;19.51;100.00;96967.03;5034074;28;20044;-73
2022/06/18 04:37:09;;;;;;;3.33;1.23;;;;;;;19.52;100.00;96965.13;5030843;28;20447;-71
2022/06/18 04:39:50;;;;;;;5.80;1.52;;;;;;;19.61;96.06;96961.50;5060360;28;20631;-73
2022/06/18 04:42:22;;;;;;;6.70;1.40;;;;;;;19.71;96.38;96964.06;5029078;28;20082;-73
2022/06/18 04:44:49;;;;;;;7.25;1.42;;;;;;;19.81;94.29;96957.66;5044577;28;20409;-72
2022/06/18 04:47:23;;;;;;;7.43;1.30;;;;;;;19.89;94.20;96956.19;5029017;28;20737;-71
2022/06/18 04:49:50;;;;;;;5.40;1.52;;;;;;;19.95;93.91;96960.44;5029760;28;20057;-71
2022/06/18 04:52:16;;;;;;;3.15;1.48;;;;;;;20.01;96.66;96951.13;5062272;28;20398;-73
2022/06/18 04:54:52;;;;;;;4.05;1.20;;;;;;;20.08;93.94;96948.81;5028454;28;20045;-72
2022/06/18 04:57:20;;;;;;;3.65;1.50;;;;;;;20.16;93.90;96945.44;5030881;28;20033;-72
2022/06/18 04:59:46;;;;;;;5.22;1.67;;;;;;;20.19;94.95;96942.09;5043937;28;20060;-71
2022/06/18 05:02:25;;;;;;;3.58;1.40;;;;;;;20.26;94.41;96953.41;5034779;28;20048;-72
2022/06/18 05:04:59;;;;;;;5.43;1.75;;;;;;;20.34;93.68;96949.19;5060674;28;20071;-72
2022/06/18 05:07:38;;;;;;;3.28;1.50;;;;;;;20.39;92.40;96946.38;5027640;28;20445;-72
2022/06/18 05:10:26;;;;;;;2.40;1.20;;;;;;;20.47;93.62;96943.00;5024950;28;20053;-72
2022/06/18 05:13:06;;;;;;;6.55;1.50;;;;;;;20.53;90.84;96940.97;5059164;28;20056;-72
2022/06/18 05:15:45;;;;;;;5.38;1.50;;;;;;;20.55;91.89;96942.31;5035105;28;20125;-72
2022/06/18 05:18:15;;;;;;;4.20;1.50;;;;;;;20.66;90.83;96940.19;5059363;28;20961;-72
2022/06/18 05:20:43;;;;;;;2.80;1.30;;;;;;;20.72;91.31;96939.00;5029040;28;20083;-72
2022/06/18 05:23:13;;;;;;;4.47;1.60;;;;;;;20.78;92.66;96934.28;5045426;28;20060;-72
2022/06/18 05:25:39;;;;;;;3.38;1.60;;;;;;;20.86;90.78;96925.41;5059261;28;20044;-72
2022/06/18 05:28:05;;;;;;;4.40;1.40;;;;;;;20.93;90.71;96923.03;5029414;28;20425;-72
2022/06/18 05:30:33;;;;;;;7.70;1.60;;;;;;;21.01;90.96;96924.25;5032032;28;20526;-72
2022/06/18 05:33:01;;;;;;;5.40;1.38;;;;;;;21.09;90.63;96931.72;5059458;28;20527;-73
2022/06/18 05:35:28;;;;;;;7.25;1.55;;;;;;;21.15;89.25;96919.59;5029833;28;20063;-72
2022/06/18 05:37:54;;;;;;;6.03;1.50;;;;;;;21.23;93.92;96928.97;5044133;28;20072;-72
2022/06/18 05:40:21;;;;;;;4.47;1.63;;;;;;;21.26;90.58;96920.22;5027672;28;20435;-73
2022/06/18 05:42:47;;;;;;;4.88;1.45;;;;;;;21.27;90.81;96928.09;5025510;28;20071;-72
2022/06/18 05:45:13;;;;;;;5.20;1.73;;;;;;;21.30;89.46;96923.94;5027339;28;20160;-72
2022/06/18 05:47:39;;;;;;;4.60;1.60;;;;;;;21.27;90.49;96925.38;5027166;28;20128;-72
2022/06/18 05:50:07;;;;;;;3.80;1.40;;;;;;;21.30;89.89;96923.94;5034596;28;20379;-72
2022/06/18 05:52:35;;;;;;;;;;;;;;;21.38;90.92;96923.22;5046340;28;20090;-72
2022/06/18 05:55:13;;;;;;;2.90;1.30;;;;;;;21.44;89.13;96918.47;5028677;28;19927;-72
2022/06/18 05:57:54;;;;;;;3.25;1.55;;;;;;;21.49;89.54;96919.16;5029698;28;20071;-71
2022/06/18 06:00:27;;;;;;;3.10;1.40;;;;;;;21.53;88.75;96916.63;5031951;28;20092;-72
2022/06/18 06:02:56;;;;;;;3.72;1.50;;;;;;;21.63;89.50;96914.47;5041290;28;20043;-72
2022/06/18 06:05:22;;;;;;;3.65;1.55;;;;;;;21.67;90.17;96910.00;5060963;28;20049;-72
2022/06/18 06:07:50;;;;;;;4.53;1.85;;;;;;;21.64;90.04;96913.38;5058513;28;20048;-73
2022/06/18 06:13:14;;;;;;;3.60;1.60;;;;;;;21.71;89.01;96910.19;5025876;28;20052;-73
2022/06/18 06:15:40;;;;;;;4.93;1.52;;;;;;;21.88;90.10;96909.53;5031170;28;20215;-72
2022/06/18 06:18:09;;;;;;;3.72;1.50;;;;;;;21.80;89.88;96908.34;5027560;28;20033;-74
2022/06/18 06:20:38;;;;;;;4.95;1.67;;;;;;;21.89;90.55;96905.69;5026371;28;20452;-73
2022/06/18 06:23:08;;;;;;;5.95;1.67;;;;;;;21.97;90.45;96903.03;5027981;28;20186;-72
2022/06/18 06:25:35;;;;;;;3.85;1.73;;;;;;;22.04;90.55;96915.41;5027196;28;20048;-72
2022/06/18 06:28:00;;;;;;;4.95;1.88;;;;;;;22.09;89.83;96907.13;5027248;28;20354;-72
2022/06/18 06:30:26;;;;;;;4.85;1.73;;;;;;;22.13;88.85;96908.13;5039588;28;20247;-72
2022/06/18 06:32:53;;;;;;;4.57;1.63;;;;;;;22.21;89.01;96910.88;5046379;28;20491;-72
2022/06/18 06:35:18;;;;;;;4.93;1.60;;;;;;;22.25;88.32;96917.31;5045803;28;20235;-72
2022/06/18 06:37:44;;;;;;;6.57;1.50;;;;;;;22.41;88.29;96912.28;5047522;28;20070;-72
2022/06/18 06:40:10;;;;;;;4.25;1.25;;;;;;;22.53;89.85;96915.22;5046967;28;20040;-72
2022/06/18 06:42:48;;;;;;;6.35;1.40;;;;;;;22.57;90.29;96911.84;5048645;28;20045;-72
2022/06/18 06:45:17;;;;;;;8.95;1.60;;;;;;;22.70;88.50;96908.22;5049230;28;20058;-73
2022/06/18 06:47:43;;;;;;;5.90;1.77;;;;;;;22.66;87.10;96907.25;5048716;28;20041;-74
2022/06/18 06:50:10;;;;;;;4.90;1.58;;;;;;;22.77;88.64;96908.56;5047556;28;20093;-74
2022/06/18 06:52:36;;;;;;;3.30;1.60;;;;;;;22.73;88.20;96908.41;5050954;28;20119;-73
2022/06/18 06:57:46;;;;;;;4.45;1.60;;;;;;;22.83;89.36;96906.50;5048922;28;20051;-73
2022/06/18 07:00:12;;;;;;;3.22;1.60;;;;;;;22.78;88.11;96913.69;5026636;28;20060;-73
2022/06/18 07:02:38;;;;;;;6.75;1.60;;;;;;;22.74;89.71;96907.28;5047736;28;20453;-75
2022/06/18 07:05:04;;;;;;;7.30;1.80;;;;;;;22.79;87.13;96900.84;5046054;28;20058;-73
2022/06/18 07:07:30;;;;;;;3.45;1.50;;;;;;;22.92;88.24;96910.09;5049074;28;20040;-74
2022/06/18 07:09:56;;;;;;;6.60;1.58;;;;;;;22.98;87.47;96909.63;5049514;28;20277;-73
2022/06/18 07:12:22;;;;;;;3.88;1.60;;;;;;;23.13;88.36;96899.38;5050965;28;20035;-73
2022/06/18 07:14:47;;;;;;;5.75;2.03;;;;;;;23.24;89.12;96903.41;5046524;28;20196;-74
2022/06/18 07:17:18;;;;;;;4.57;1.80;;;;;;;23.33;87.47;96901.47;5048064;28;20258;-73
2022/06/18 07:19:43;;;;;;;4.68;1.98;;;;;;;23.40;85.51;96906.47;5047828;28;20130;-75
2022/06/18 07:22:10;;;;;;;6.88;1.98;;;;;;;23.39;86.31;96904.88;5046201;28;20090;-75
2022/06/18 07:24:37;;;;;;;3.55;1.63;;;;;;;23.43;88.05;96903.13;5046905;28;20442;-74
2022/06/18 07:27:04;;;;;;;3.42;1.70;;;;;;;23.39;85.34;96902.94;5048145;28;20082;-74
2022/06/18 07:29:29;;;;;;;4.30;1.63;;;;;;;23.42;87.93;96896.81;5046407;28;20068;-73
2022/06/18 07:32:14;;;;;;;3.65;1.70;;;;;;;23.46;85.55;96894.28;5049976;28;20125;-74
2022/06/18 07:34:40;;;;;;;5.03;1.70;;;;;;;23.50;83.79;96898.78;5046542;28;20044;-74
2022/06/18 07:37:06;;;;;;;5.10;2.05;;;;;;;23.59;87.95;96896.06;5047454;28;20384;-73
2022/06/18 07:39:31;;;;;;;8.65;1.90;;;;;;;23.76;85.27;96896.06;5046361;28;20036;-73
2022/06/18 07:41:57;;;;;;;3.83;2.00;;;;;;;23.90;85.31;96884.97;5037121;28;20056;-74
2022/06/18 07:44:23;;;;;;;5.43;2.30;;;;;;;23.96;84.42;96888.31;5047895;28;20396;-71
2022/06/18 07:46:51;;;;;;;4.13;1.65;;;;;;;24.13;85.22;96882.84;5049088;28;20060;-71
2022/06/18 07:49:17;;;;;;;6.53;1.90;;;;;;;24.18;84.89;96890.84;5044538;28;20051;-73
2022/06/18 07:51:43;;;;;;;5.00;2.28;;;;;;;24.28;85.08;96890.50;5045537;28;20068;-71
2022/06/18 07:54:12;;;;;;;5.45;1.95;;;;;;;24.31;84.96;96875.38;5046544;28;20047;-72
2022/06/18 07:56:38;;;;;;;10.48;2.08;;;;;;;24.34;82.76;96877.47;5047515;28;20040;-71
2022/06/18 07:59:03;;;;;;;3.72;1.90;;;;;;;24.45;83.65;96878.75;5049159;28;20094;-73
2022/06/18 08:01:29;;;;;;;9.20;2.22;;;;;;;24.44;82.55;96879.88;5043024;28;20044;-72
2022/06/18 08:03:55;;;;;;;4.90;2.03;;;;;;;24.55;83.07;96878.38;5045068;28;20067;-70
2022/06/18 08:06:20;;;;;;;4.47;1.90;;;;;;;24.58;83.07;96883.16;5048009;28;20041;-72
2022/06/18 08:08:46;;;;;;;6.00;1.80;;;;;;;24.57;82.51;96876.09;5045841;28;20029;-71
2022/06/18 08:11:15;;;;;;;6.47;2.10;;;;;;;24.80;84.11;96875.81;5044712;28;20040;-72
2022/06/18 08:13:41;;;;;;;9.60;2.35;;;;;;;24.84;81.95;96869.38;5046324;28;20041;-72
2022/06/18 08:16:07;;;;;;;6.47;2.03;;;;;;;24.88;80.94;96880.44;5045684;28;20125;-71
2022/06/18 08:18:33;;;;;;;10.27;2.17;;;;;;;24.82;81.59;96868.09;5046614;28;20060;-72
2022/06/18 08:21:05;;;;;;;5.50;2.40;;;;;;;24.91;81.33;96871.59;5043952;28;20558;-72
2022/06/18 08:23:31;;;;;;;5.43;1.88;;;;;;;25.11;81.36;96868.09;5045762;28;20399;-75
2022/06/18 08:25:56;;;;;;;6.18;2.17;;;;;;;25.19;83.69;96866.44;5048097;28;20105;-73
2022/06/18 08:28:22;;;;;;;7.07;2.00;;;;;;;25.33;81.94;96866.97;5046170;28;20048;-72
2022/06/18 08:30:47;;;;;;;8.32;2.30;;;;;;;25.35;79.48;96866.66;5044140;28;20049;-75
2022/06/18 08:33:13;;;;;;;7.68;2.22;;;;;;;25.36;80.07;96868.25;5035928;28;20033;-74
2022/06/18 08:35:39;;;;;;;6.78;2.20;;;;;;;25.59;81.01;96858.53;5045797;28;20060;-72
2022/06/18 08:38:07;;;;;;;8.45;2.30;;;;;;;25.78;80.82;96863.59;5041837;28;20403;-72
2022/06/18 08:40:35;;;;;;;4.03;1.98;;;;;;;25.84;79.03;96867.72;5044542;28;20036;-74
2022/06/18 08:43:26;;;;;;;4.45;2.28;;;;;;;25.82;81.77;96861.75;5045415;28;20122;-72
2022/06/18 08:46:11;;;;;;;4.03;2.10;;;;;;;25.86;79.23;96859.16;5049622;28;20071;-71
2022/06/18 08:48:45;;;;;;;4.80;2.30;;;;;;;26.14;78.60;96865.63;5047325;28;20488;-72
2022/06/18 08:51:26;;;;;;;11.27;2.35;;;;;;;26.15;75.90;96861.75;5050072;28;20043;-72
2022/06/18 08:53:54;;;;;;;6.97;2.40;;;;;;;26.10;78.13;96862.75;5062294;28;20072;-72
2022/06/18 08:56:45;;;;;;;4.65;2.10;;;;;;;26.13;74.50;96863.22;5064944;28;20380;-73
2022/06/18 08:59:37;;;;;;;8.05;2.42;;;;;;;26.21;76.69;96860.38;5049570;28;20473;-72
2022/06/18 09:02:35;;;;;;;7.68;2.55;;;;;;;26.44;76.08;96849.81;5047766;28;20058;-72
2022/06/18 09:05:24;;;;;;;6.55;2.40;;;;;;;26.46;75.38;96855.78;5048589;28;20048;-72
2022/06/18 09:08:07;;;;;;;6.38;2.30;;;;;;;26.57;73.21;96845.94;5049923;28;20512;-73
2022/06/18 09:11:13;;;;;;;5.30;2.65;;;;;;;26.77;74.36;96840.66;5048731;28;20036;-72
2022/06/18 09:13:45;;;;;;;5.57;2.22;;;;;;;26.92;72.41;96846.25;5017166;28;20117;-71
2022/06/18 09:16:15;;;;;;;4.93;3.25;;;;;;;26.70;70.43;96840.47;5048990;28;20043;-73
2022/06/18 09:18:47;;;;;;;8.55;2.70;;;;;;;26.83;73.10;96839.31;5049979;28;20418;-72
2022/06/18 09:21:22;;;;;;;9.63;2.70;;;;;;;27.03;69.35;96848.56;5049607;28;20044;-72
2022/06/18 09:24:06;;;;;;;3.95;2.30;;;;;;;27.23;67.12;96850.38;5046951;28;20052;-73
2022/06/18 09:26:42;;;;;;;9.02;2.67;;;;;;;27.42;68.80;96842.31;5048504;28;20480;-71
2022/06/18 09:29:27;;;;;;;4.03;2.38;;;;;;;27.57;68.00;96843.53;5048824;28;20044;-73
2022/06/18 09:32:17;;;;;;;4.95;2.60;;;;;;;27.39;67.20;96842.19;5048483;28;20626;-72
2022/06/18 09:34:51;;;;;;;5.00;2.70;;;;;;;27.30;66.74;96842.34;5050648;28;20507;-72
2022/06/18 09:37:24;;;;;;;7.65;2.60;;;;;;;27.30;67.15;96839.59;5049508;28;20090;-73
2022/06/18 09:39:55;;;;;;;7.15;2.40;;;;;;;27.56;66.63;96849.38;5046879;28;20059;-73
2022/06/18 09:42:38;;;;;;;7.28;2.80;;;;;;;27.78;71.53;96840.59;5030801;28;20562;-72
2022/06/18 09:45:20;;;;;;;13.85;3.50;;;;;;;27.59;65.73;96845.91;5048307;28;20044;-74
2022/06/18 09:47:47;;;;;;;8.35;2.97;;;;;;;27.83;66.89;96840.34;5046044;28;20042;-72
2022/06/18 09:50:20;;;;;;;9.68;2.75;;;;;;;27.98;64.79;96839.56;5046523;28;20050;-73
2022/06/18 09:52:49;;;;;;;9.40;3.00;;;;;;;28.32;65.45;96834.56;5049858;28;20052;-71
2022/06/18 09:55:20;;;;;;;11.32;2.70;;;;;;;28.41;63.13;96834.44;5046988;28;20178;-71
2022/06/18 09:57:50;;;;;;;13.00;3.10;;;;;;;28.40;63.99;96841.84;5051636;28;20390;-72
2022/06/18 10:00:21;;;;;;;;;;;;;;;28.15;59.13;96837.66;5048303;28;20040;-72
2022/06/18 10:02:54;;;;;;;10.98;2.90;;;;;;;28.39;64.96;96834.75;5050762;28;19916;-72
2022/06/18 10:08:11;;;;;;;6.95;2.88;;;;;;;28.67;56.56;96833.88;5049441;28;20657;-72
2022/06/18 10:10:40;;;;;;;13.40;3.45;;;;;;;28.90;58.12;96828.50;5049813;28;20363;-73
2022/06/18 10:13:14;;;;;;;10.52;3.25;;;;;;;29.02;58.14;96818.19;5048378;28;20036;-72
2022/06/18 10:15:40;;;;;;;6.50;2.78;;;;;;;28.87;57.38;96821.75;5051587;28;20036;-72
2022/06/18 10:18:22;;;;;;;7.90;3.08;;;;;;;29.13;58.52;96815.69;5044725;28;20444;-72
2022/06/18 10:21:20;;;;;;;5.55;2.90;;;;;;;29.18;56.56;96815.38;5047649;28;20182;-73
2022/06/18 10:24:03;;;;;;;12.38;3.10;;;;;;;29.33;51.89;96813.72;5009446;28;20512;-72
2022/06/18 10:27:15;;;;;;;14.23;3.00;;;;;;;29.18;53.79;96809.06;5048954;28;20037;-71
2022/06/18 10:30:00;;;;;;;9.05;3.05;;;;;;;29.43;54.96;96810.44;5047207;28;20052;-72
2022/06/18 10:32:41;;;;;;;7.35;2.92;;;;;;;29.55;50.84;96799.25;5049022;28;21178;-74
2022/06/18 10:35:21;;;;;;;11.43;3.22;;;;;;;30.00;46.59;96803.28;5048098;28;20052;-72
2022/06/18 10:38:02;;;;;;;10.52;2.97;;;;;;;30.42;45.91;96796.91;5049566;28;20037;-73
2022/06/18 10:40:50;;;;;;;7.63;3.17;;;;;;;30.64;43.40;96800.81;5044244;28;20041;-75
2022/06/18 10:44:07;;;;;;;10.60;3.30;;;;;;;30.62;43.27;96794.88;5048880;28;20055;-73
2022/06/18 10:46:33;;;;;;;8.93;2.75;;;;;;;30.56;42.70;96797.16;5053320;28;20055;-75
2022/06/18 10:49:05;;;;;;;10.95;3.13;;;;;;;31.09;41.18;96788.88;5046675;28;20041;-72
2022/06/18 10:51:43;;;;;;;17.17;3.10;;;;;;;31.10;40.89;96793.25;5047946;28;20120;-72
2022/06/18 10:54:09;;;;;;;13.50;3.00;;;;;;;30.90;41.13;96789.81;5046411;28;20067;-73
2022/06/18 10:56:53;;;;;;;14.10;2.97;;;;;;;30.75;40.33;96794.34;5046857;28;20045;-74
2022/06/18 10:59:31;;;;;;;11.32;3.08;;;;;;;31.21;40.41;96783.16;5044929;28;20124;-75
2022/06/18 11:02:14;;;;;;;11.68;2.60;;;;;;;31.66;39.30;96778.56;5044163;28;20389;-73
2022/06/18 11:04:41;;;;;;;7.68;3.25;;;;;;;31.22;37.43;96776.47;5048110;28;20033;-73
2022/06/18 11:07:12;;;;;;;7.35;2.90;;;;;;;31.70;38.09;96778.63;5044113;28;20041;-73
2022/06/18 11:09:50;;;;;;;14.95;3.22;;;;;;;31.58;38.31;96783.22;5044287;28;20037;-72
2022/06/18 11:12:23;;;;;;;8.10;3.00;;;;;;;32.28;35.48;96776.03;5045914;28;20353;-72
2022/06/18 11:14:49;;;;;;;12.20;2.80;;;;;;;32.71;34.21;96773.66;5064137;28;20045;-74
2022/06/18 11:17:30;;;;;;;14.07;3.42;;;;;;;32.15;36.88;96770.00;5031052;28;20558;-73
2022/06/18 11:20:15;;;;;;;11.75;3.65;;;;;;;32.52;35.91;96768.34;5044768;28;20045;-73
2022/06/18 11:22:41;;;;;;;9.07;2.53;;;;;;;32.38;34.24;96772.63;5046062;28;20048;-74
2022/06/18 11:25:24;;;;;;;14.82;3.03;;;;;;;33.62;35.31;96766.25;5033822;28;20041;-73
2022/06/18 11:27:50;;;;;;;13.13;3.15;;;;;;;34.34;33.74;96764.38;5045132;28;20477;-73
2022/06/18 11:30:31;;;;;;;6.40;2.55;;;;;;;34.96;29.97;96763.19;5047624;28;20048;-71
2022/06/18 11:32:57;;;;;;;12.95;3.08;;;;;;;34.56;30.79;96760.44;5039701;28;20050;-72
2022/06/18 11:35:30;;;;;;;13.13;3.17;;;;;;;35.00;29.60;96758.41;5044621;28;20611;-73
2022/06/18 11:38:01;;;;;;;11.70;3.20;;;;;;;35.63;28.17;96757.38;5046548;28;20150;-72
2022/06/18 11:40:29;;;;;;;9.35;3.08;;;;;;;37.37;27.75;96754.41;5046595;28;20441;-73
2022/06/18 11:43:33;;;;;;;11.38;3.45;;;;;;;38.04;26.22;96747.09;5046524;28;20040;-72
2022/06/18 11:46:06;;;;;;;15.23;3.13;;;;;;;38.59;24.68;96739.44;5049971;28;20104;-73
2022/06/18 11:49:00;;;;;;;11.13;3.22;;;;;;;39.70;23.02;96741.75;5046735;28;20041;-73
2022/06/18 11:51:31;;;;;;;15.95;3.13;;;;;;;40.41;22.55;96744.91;5046326;28;20044;-73
2022/06/18 11:54:23;;;;;;;8.98;3.03;;;;;;;40.64;21.56;96743.94;5045551;28;20041;-73
2022/06/18 11:56:57;;;;;;;12.65;2.95;;;;;;;41.81;20.31;96734.28;5020848;28;20047;-73
2022/06/18 11:59:27;;;;;;;9.80;3.00;;;;;;;42.40;20.76;96730.00;5046303;28;20281;-74
2022/06/18 12:01:58;;;;;;;11.05;3.63;;;;;;;43.08;20.35;96727.69;5048034;28;20049;-73
2022/06/18 12:04:31;;;;;;;8.57;2.90;;;;;;;43.73;19.21;96735.31;5044228;28;20583;-73
2022/06/18 12:07:05;;;;;;;6.85;2.83;;;;;;;43.96;19.05;96727.63;5046014;28;20049;-73
2022/06/18 12:09:32;;;;;;;13.55;3.50;;;;;;;43.36;18.89;96728.72;5045776;28;20158;-73